createdAt,value
2022-10-12T00:01:23.706Z,12.17
2022-10-12T00:04:26.414Z,12.07
2022-10-12T00:07:28.878Z,11.93
2022-10-12T00:10:31.419Z,11.73
2022-10-12T00:13:34.369Z,12.10
2022-10-12T00:16:37.109Z,11.00
2022-10-12T00:19:40.504Z,10.73
2022-10-12T00:22:42.943Z,12.25
2022-10-12T00:25:45.745Z,11.57
2022-10-12T00:28:49.243Z,12.18
2022-10-12T00:31:52.066Z,12.97
2022-10-12T00:34:54.599Z,12.50
2022-10-12T00:37:57.252Z,11.80
2022-10-12T00:40:59.699Z,11.23
2022-10-12T00:44:02.315Z,11.15
2022-10-12T00:47:16.856Z,12.63
2022-10-12T00:50:27.261Z,10.90
2022-10-12T00:53:36.641Z,11.82
2022-10-12T00:56:41.498Z,12.85
2022-10-12T00:59:52.338Z,11.52
2022-10-12T01:02:55.944Z,11.20
2022-10-12T01:05:59.647Z,11.57
2022-10-12T01:09:02.428Z,10.70
2022-10-12T01:12:07.241Z,12.00
2022-10-12T01:15:11.615Z,11.18
2022-10-12T01:18:27.532Z,13.07
2022-10-12T01:21:37.737Z,10.70
2022-10-12T01:25:17.632Z,11.60
2022-10-12T01:28:46.860Z,11.27
2022-10-12T01:32:12.489Z,12.45
2022-10-12T01:35:24.100Z,11.33
2022-10-12T01:38:42.543Z,11.15
2022-10-12T01:41:50.716Z,11.15
2022-10-12T01:45:15.998Z,11.85
2022-10-12T01:48:18.766Z,12.05
2022-10-12T01:52:19.914Z,12.63
2022-10-12T01:55:28.864Z,10.80
2022-10-12T01:58:31.997Z,11.38
2022-10-12T02:01:44.606Z,10.82
2022-10-12T02:04:56.349Z,11.25
2022-10-12T02:08:08.767Z,10.37
2022-10-12T02:11:16.532Z,11.07
2022-10-12T02:14:22.985Z,11.02
2022-10-12T02:17:25.974Z,9.90
2022-10-12T02:20:28.700Z,10.40
2022-10-12T02:23:31.704Z,11.53
2022-10-12T02:26:37.224Z,11.40
2022-10-12T02:29:42.089Z,11.27
2022-10-12T02:32:54.181Z,11.57
2022-10-12T02:36:02.678Z,12.07
2022-10-12T02:39:14.773Z,11.00
2022-10-12T02:42:23.740Z,10.85
2022-10-12T02:45:27.899Z,11.80
2022-10-12T02:48:31.328Z,11.52
2022-10-12T02:51:35.780Z,10.40
2022-10-12T02:54:39.715Z,11.53
2022-10-12T02:57:42.331Z,10.90
2022-10-12T03:00:45.123Z,10.32
2022-10-12T03:03:47.735Z,10.10
2022-10-12T03:06:50.562Z,11.20
2022-10-12T03:09:53.137Z,9.77
2022-10-12T03:12:55.707Z,11.02
2022-10-12T03:16:10.069Z,10.57
2022-10-12T03:19:12.598Z,10.13
2022-10-12T03:22:15.104Z,11.52
2022-10-12T03:25:17.618Z,11.67
2022-10-12T03:28:20.576Z,10.75
2022-10-12T03:31:23.301Z,10.05
2022-10-12T03:34:26.032Z,11.85
2022-10-12T03:37:28.843Z,11.73
2022-10-12T03:40:32.620Z,11.27
2022-10-12T03:43:35.371Z,10.18
2022-10-12T03:46:38.011Z,11.00
2022-10-12T03:49:40.452Z,11.50
2022-10-12T03:52:44.185Z,10.60
2022-10-12T03:55:46.781Z,9.83
2022-10-12T03:58:49.616Z,9.55
2022-10-12T04:01:53.669Z,10.25
2022-10-12T04:04:56.216Z,11.00
2022-10-12T04:07:59.278Z,11.07
2022-10-12T04:11:02.277Z,9.93
2022-10-12T04:14:05.113Z,10.27
2022-10-12T04:17:07.700Z,10.07
2022-10-12T04:20:11.443Z,10.30
2022-10-12T04:23:13.940Z,10.38
2022-10-12T04:26:16.389Z,10.17
2022-10-12T04:29:19.269Z,10.85
2022-10-12T04:32:21.826Z,9.98
2022-10-12T04:35:24.233Z,10.45
2022-10-12T04:38:26.733Z,10.77
2022-10-12T04:41:29.404Z,10.63
2022-10-12T04:44:32.490Z,10.82
2022-10-12T04:47:36.108Z,11.60
2022-10-12T04:50:39.359Z,10.35
2022-10-12T04:53:42.129Z,10.88
2022-10-12T04:56:47.966Z,11.27
2022-10-12T04:59:50.876Z,10.00
2022-10-12T05:02:53.479Z,11.07
2022-10-12T05:05:55.955Z,10.82
2022-10-12T05:08:58.502Z,11.23
2022-10-12T05:12:00.953Z,10.53
2022-10-12T05:15:03.495Z,11.10
2022-10-12T05:18:06.676Z,11.18
2022-10-12T05:21:09.873Z,10.70
2022-10-12T05:24:12.571Z,10.50
2022-10-12T05:27:35.236Z,10.70
2022-10-12T05:30:40.763Z,12.25
2022-10-12T05:33:49.310Z,15.05
2022-10-12T05:36:54.189Z,12.32
2022-10-12T05:39:58.585Z,13.48
2022-10-12T05:43:01.148Z,12.33
2022-10-12T05:46:05.978Z,12.75
2022-10-12T05:49:08.561Z,13.02
2022-10-12T05:52:11.612Z,12.95
2022-10-12T05:55:14.478Z,12.10
2022-10-12T05:58:18.189Z,13.73
2022-10-12T06:01:21.958Z,15.48
2022-10-12T06:04:24.608Z,12.02
2022-10-12T06:07:27.720Z,11.73
2022-10-12T06:10:32.321Z,12.93
2022-10-12T06:13:35.084Z,11.77
2022-10-12T06:16:39.720Z,13.23
2022-10-12T06:19:42.179Z,11.23
2022-10-12T06:22:47.688Z,13.77
2022-10-12T06:25:51.911Z,11.70
2022-10-12T06:28:54.638Z,10.87
2022-10-12T06:31:58.088Z,12.38
2022-10-12T06:35:00.745Z,11.88
2022-10-12T06:38:07.258Z,13.73
2022-10-12T06:41:09.742Z,12.00
2022-10-12T06:44:12.251Z,13.57
2022-10-12T06:47:18.899Z,13.13
2022-10-12T06:50:21.413Z,11.45
2022-10-12T06:53:28.909Z,12.35
2022-10-12T06:56:31.543Z,11.73
2022-10-12T06:59:34.603Z,12.30
2022-10-12T07:02:38.626Z,12.70
2022-10-12T07:05:42.033Z,11.30
2022-10-12T07:08:46.133Z,14.57
2022-10-12T07:11:49.545Z,14.43
2022-10-12T07:14:52.360Z,11.13
2022-10-12T07:17:54.874Z,12.07
2022-10-12T07:20:59.971Z,12.35
2022-10-12T07:24:02.778Z,13.85
2022-10-12T07:27:08.732Z,12.52
2022-10-12T07:30:12.137Z,12.53
2022-10-12T07:33:14.775Z,11.80
2022-10-12T07:36:21.742Z,12.88
2022-10-12T07:39:25.175Z,12.60
2022-10-12T07:42:27.686Z,11.70
2022-10-12T07:45:30.078Z,11.80
2022-10-12T07:48:33.717Z,11.00
2022-10-12T07:51:37.196Z,11.85
2022-10-12T07:55:24.094Z,10.90
2022-10-12T07:58:26.563Z,11.48
2022-10-12T08:01:33.349Z,12.53
2022-10-12T08:04:35.979Z,18.38
2022-10-12T08:07:38.801Z,16.00
2022-10-12T08:10:44.157Z,14.27
2022-10-12T08:13:47.252Z,14.75
2022-10-12T08:16:49.736Z,12.53
2022-10-12T08:19:52.213Z,13.23
2022-10-12T08:22:55.103Z,14.65
2022-10-12T08:25:59.771Z,13.63
2022-10-12T08:29:06.699Z,12.55
2022-10-12T08:32:11.114Z,13.43
2022-10-12T08:35:15.152Z,12.60
2022-10-12T08:38:18.591Z,12.23
2022-10-12T08:41:33.108Z,11.73
2022-10-12T08:45:13.475Z,14.95
2022-10-12T08:48:27.874Z,15.20
2022-10-12T08:51:33.472Z,15.38
2022-10-12T08:54:43.006Z,12.95
2022-10-12T08:57:49.896Z,23.55
2022-10-12T09:01:02.161Z,18.73
2022-10-12T09:04:12.406Z,13.60
2022-10-12T09:07:36.552Z,15.95
2022-10-12T09:10:46.647Z,14.75
2022-10-12T09:14:11.065Z,15.77
2022-10-12T09:17:26.146Z,14.48
2022-10-12T09:20:47.229Z,13.13
2022-10-12T09:23:51.211Z,19.70
2022-10-12T09:27:00.862Z,15.85
2022-10-12T09:30:04.675Z,14.40
2022-10-12T09:33:51.353Z,15.35
2022-10-12T09:36:55.680Z,15.40
2022-10-12T09:39:59.996Z,17.55
2022-10-12T09:43:03.823Z,21.63
2022-10-12T09:46:13.548Z,16.08
2022-10-12T09:49:16.064Z,14.32
2022-10-12T09:52:24.759Z,14.43
2022-10-12T09:55:28.462Z,20.38
2022-10-12T09:58:40.687Z,17.92
2022-10-12T10:02:15.882Z,16.05
2022-10-12T10:05:34.457Z,16.85
2022-10-12T10:08:43.515Z,17.97
2022-10-12T10:11:47.038Z,13.05
2022-10-12T10:14:51.461Z,15.82
2022-10-12T10:17:57.720Z,14.80
2022-10-12T10:21:02.935Z,16.00
2022-10-12T10:24:08.136Z,17.23
2022-10-12T10:27:28.886Z,15.98
2022-10-12T10:30:35.323Z,16.67
2022-10-12T10:33:42.663Z,19.33
2022-10-12T10:36:48.044Z,14.30
2022-10-12T10:39:54.816Z,14.07
2022-10-12T10:43:08.395Z,17.60
2022-10-12T10:46:11.034Z,16.60
2022-10-12T10:49:35.189Z,16.95
2022-10-12T10:52:38.635Z,15.80
2022-10-12T10:55:44.758Z,15.43
2022-10-12T10:58:52.399Z,20.95
2022-10-12T11:01:59.076Z,16.70
2022-10-12T11:05:05.019Z,19.05
2022-10-12T11:08:20.741Z,14.23
2022-10-12T11:11:29.819Z,18.90
2022-10-12T11:14:45.335Z,18.23
2022-10-12T11:17:52.188Z,15.77
2022-10-12T11:21:04.909Z,17.80
2022-10-12T11:24:18.788Z,15.77
2022-10-12T11:27:39.536Z,23.33
2022-10-12T11:30:49.786Z,21.17
2022-10-12T11:33:57.470Z,16.00
2022-10-12T11:41:31.134Z,19.27
2022-10-12T11:44:16.057Z,17.23
2022-10-12T11:47:25.772Z,14.35
2022-10-12T11:50:31.508Z,21.15
2022-10-12T11:53:58.479Z,19.30
2022-10-12T11:57:16.688Z,16.52
2022-10-12T12:01:10.390Z,18.73
2022-10-12T12:07:59.032Z,15.52
2022-10-12T12:11:18.464Z,18.55
2022-10-12T12:14:22.009Z,13.45
2022-10-12T12:17:32.178Z,13.63
2022-10-12T12:20:53.911Z,19.65
2022-10-12T12:23:57.882Z,18.65
2022-10-12T12:27:01.720Z,16.77
2022-10-12T12:30:19.201Z,17.27
2022-10-12T12:33:21.872Z,13.03
2022-10-12T12:36:36.996Z,19.35
2022-10-12T12:39:42.998Z,15.20
2022-10-12T12:42:46.735Z,17.88
2022-10-12T12:46:11.455Z,15.27
2022-10-12T12:49:55.231Z,18.93
2022-10-12T12:53:15.154Z,16.45
2022-10-12T12:56:32.549Z,18.60
2022-10-12T13:00:06.766Z,14.50
2022-10-12T13:03:38.738Z,15.88
2022-10-12T13:07:18.499Z,15.07
2022-10-12T13:10:29.446Z,15.77
2022-10-12T13:14:08.849Z,17.23
2022-10-12T13:17:49.471Z,16.80
2022-10-12T13:20:52.468Z,16.83
2022-10-12T13:24:20.181Z,15.47
2022-10-12T13:27:34.200Z,16.80
2022-10-12T13:30:50.069Z,16.92
2022-10-12T13:34:24.503Z,14.65
2022-10-12T13:37:31.750Z,17.27
2022-10-12T13:40:40.629Z,14.93
2022-10-12T13:43:55.644Z,14.60
2022-10-12T13:47:03.568Z,16.85
2022-10-12T13:50:21.589Z,16.60
2022-10-12T13:53:25.076Z,16.45
2022-10-12T13:56:30.309Z,17.77
2022-10-12T13:59:37.700Z,16.95
2022-10-12T14:02:40.371Z,19.25
2022-10-12T14:05:45.624Z,17.40
2022-10-12T14:08:48.808Z,16.13
2022-10-12T14:11:53.504Z,14.53
2022-10-12T14:14:58.192Z,16.45
2022-10-12T14:18:01.104Z,14.23
2022-10-12T14:21:26.848Z,14.02
2022-10-12T14:24:30.198Z,14.90
2022-10-12T14:27:32.950Z,14.27
2022-10-12T14:30:51.771Z,15.10
2022-10-12T14:33:54.386Z,14.93
2022-10-12T14:37:04.301Z,12.60
2022-10-12T14:40:25.077Z,18.52
2022-10-12T14:43:28.154Z,13.07
2022-10-12T14:46:30.717Z,16.13
2022-10-12T14:49:41.077Z,16.60
2022-10-12T14:52:49.474Z,16.65
2022-10-12T14:55:54.509Z,18.65
2022-10-12T14:58:57.166Z,17.87
2022-10-12T15:01:59.653Z,17.95
2022-10-12T15:05:02.540Z,18.15
2022-10-12T15:08:08.943Z,19.88
2022-10-12T15:11:15.119Z,20.25
2022-10-12T15:14:17.911Z,21.57
2022-10-12T15:17:20.531Z,13.25
2022-10-12T15:20:25.129Z,14.13
2022-10-12T15:23:27.728Z,16.73
2022-10-12T15:26:30.176Z,18.48
2022-10-12T15:29:32.714Z,17.20
2022-10-12T15:32:35.223Z,15.80
2022-10-12T15:35:37.950Z,17.65
2022-10-12T15:38:40.600Z,18.80
2022-10-12T15:41:43.564Z,18.95
2022-10-12T15:44:46.014Z,15.43
2022-10-12T15:47:50.410Z,15.07
2022-10-12T15:50:53.367Z,14.95
2022-10-12T15:53:56.351Z,12.20
2022-10-12T15:57:00.141Z,15.75
2022-10-12T16:00:02.695Z,16.80
2022-10-12T16:03:20.248Z,14.40
2022-10-12T16:06:27.029Z,17.80
2022-10-12T16:09:29.554Z,16.00
2022-10-12T16:12:32.064Z,14.18
2022-10-12T16:15:36.183Z,17.30
2022-10-12T16:18:38.902Z,15.20
2022-10-12T16:21:41.346Z,14.43
2022-10-12T16:24:43.760Z,14.07
2022-10-12T16:27:46.430Z,15.25
2022-10-12T16:30:49.770Z,14.13
2022-10-12T16:33:52.496Z,16.55
2022-10-12T16:36:55.001Z,13.43
2022-10-12T16:39:57.669Z,15.18
2022-10-12T16:43:01.280Z,13.70
2022-10-12T16:46:04.288Z,14.43
2022-10-12T16:49:07.674Z,13.02
2022-10-12T16:52:10.139Z,13.70
2022-10-12T16:55:13.021Z,13.13
2022-10-12T16:58:15.574Z,15.32
2022-10-12T17:01:18.543Z,12.60
2022-10-12T17:04:22.640Z,13.35
2022-10-12T17:07:25.771Z,15.75
2022-10-12T17:10:28.838Z,14.25
2022-10-12T17:13:32.960Z,11.73
2022-10-12T17:16:52.054Z,14.20
2022-10-12T17:19:54.663Z,14.43
2022-10-12T17:22:57.252Z,12.23
2022-10-12T17:25:59.746Z,15.68
2022-10-12T17:29:09.878Z,15.70
2022-10-12T17:32:12.692Z,13.43
2022-10-12T17:35:16.427Z,12.82
2022-10-12T17:38:19.117Z,14.55
2022-10-12T17:41:21.793Z,12.80
2022-10-12T17:44:24.431Z,14.25
2022-10-12T17:47:28.325Z,14.00
2022-10-12T17:50:32.867Z,15.05
2022-10-12T17:53:39.768Z,14.88
2022-10-12T17:56:42.621Z,14.32
2022-10-12T17:59:45.421Z,13.30
2022-10-12T18:02:48.351Z,15.30
2022-10-12T18:05:51.254Z,14.02
2022-10-12T18:08:56.108Z,16.67
2022-10-12T18:11:59.080Z,14.57
2022-10-12T18:15:02.072Z,14.82
2022-10-12T18:18:04.968Z,12.83
2022-10-12T18:21:13.855Z,11.55
2022-10-12T18:24:17.978Z,12.55
2022-10-12T18:27:20.759Z,12.60
2022-10-12T18:30:23.399Z,14.00
2022-10-12T18:33:27.083Z,13.23
2022-10-12T18:36:44.241Z,11.70
2022-10-12T18:39:47.164Z,13.18
2022-10-12T18:42:50.431Z,14.68
2022-10-12T18:45:53.223Z,13.68
2022-10-12T18:48:57.037Z,13.63
2022-10-12T18:52:00.110Z,13.65
2022-10-12T18:55:03.632Z,11.82
2022-10-12T18:58:06.918Z,12.48
2022-10-12T19:01:12.577Z,12.75
2022-10-12T19:04:16.142Z,11.47
2022-10-12T19:07:19.525Z,11.90
2022-10-12T19:10:24.987Z,12.13
2022-10-12T19:13:28.125Z,11.32
2022-10-12T19:16:32.564Z,11.55
2022-10-12T19:19:35.708Z,13.33
2022-10-12T19:22:38.944Z,11.57
2022-10-12T19:25:42.215Z,12.93
2022-10-12T19:28:47.063Z,11.75
2022-10-12T19:31:52.738Z,11.50
2022-10-12T19:34:56.352Z,13.30
2022-10-12T19:37:59.622Z,11.82
2022-10-12T19:41:03.248Z,12.85
2022-10-12T19:44:06.427Z,11.80
2022-10-12T19:47:09.200Z,11.98
2022-10-12T19:50:13.360Z,11.93
2022-10-12T19:53:16.306Z,11.88
2022-10-12T19:56:23.595Z,12.65
2022-10-12T19:59:26.970Z,10.98
2022-10-12T20:02:30.297Z,11.98
2022-10-12T20:05:33.612Z,11.70
2022-10-12T20:08:38.234Z,10.90
2022-10-12T20:11:42.071Z,11.18
2022-10-12T20:14:45.137Z,11.50
2022-10-12T20:17:47.659Z,10.90
2022-10-12T20:20:51.025Z,11.57
2022-10-12T20:23:54.240Z,11.02
2022-10-12T20:26:56.876Z,10.77
2022-10-12T20:29:59.302Z,11.65
2022-10-12T20:33:02.383Z,12.10
2022-10-12T20:36:13.669Z,12.33
2022-10-12T20:39:16.234Z,11.70
2022-10-12T20:42:21.934Z,11.52
2022-10-12T20:45:25.465Z,12.88
2022-10-12T20:48:28.050Z,10.40
2022-10-12T20:51:42.837Z,13.97
2022-10-12T20:54:45.464Z,11.07
2022-10-12T20:57:49.070Z,11.90
2022-10-12T21:01:02.555Z,10.27
2022-10-12T21:04:05.219Z,10.13
2022-10-12T21:07:07.803Z,10.87
2022-10-12T21:10:10.213Z,12.52
2022-10-12T21:13:12.817Z,10.70
2022-10-12T21:16:15.855Z,12.20
2022-10-12T21:19:18.882Z,12.55
2022-10-12T21:22:21.593Z,10.93
2022-10-12T21:25:24.086Z,13.40
2022-10-12T21:28:26.539Z,13.15
2022-10-12T21:31:32.344Z,11.68
2022-10-12T21:34:35.396Z,10.85
2022-10-12T21:37:37.909Z,9.90
2022-10-12T21:40:40.385Z,10.77
2022-10-12T21:43:43.844Z,11.98
2022-10-12T21:46:46.381Z,10.52
2022-10-12T21:49:48.906Z,11.52
2022-10-12T21:52:51.363Z,11.13
2022-10-12T21:55:53.843Z,11.15
2022-10-12T21:58:58.204Z,10.45
2022-10-12T22:02:00.666Z,10.30
2022-10-12T22:05:03.211Z,12.82
2022-10-12T22:08:05.968Z,11.53
2022-10-12T22:11:12.202Z,10.73
2022-10-12T22:14:17.861Z,9.20
2022-10-12T22:17:20.341Z,11.43
2022-10-12T22:20:22.826Z,10.52
2022-10-12T22:23:28.078Z,9.90
2022-10-12T22:26:32.524Z,10.75
2022-10-12T22:29:36.907Z,10.50
2022-10-12T22:32:40.712Z,9.98
2022-10-12T22:35:55.976Z,9.18
2022-10-12T22:38:58.809Z,11.63
2022-10-12T22:42:01.272Z,11.55
2022-10-12T22:45:05.014Z,9.90
2022-10-12T22:48:07.457Z,11.65
2022-10-12T22:51:11.817Z,10.30
2022-10-12T22:54:14.266Z,10.33
2022-10-12T22:57:16.980Z,11.43
2022-10-12T23:00:19.735Z,9.40
2022-10-12T23:03:22.211Z,11.27
2022-10-12T23:06:25.877Z,11.45
2022-10-12T23:09:28.411Z,10.50
2022-10-12T23:12:33.737Z,8.75
2022-10-12T23:15:36.294Z,10.82
2022-10-12T23:18:39.523Z,10.25
2022-10-12T23:21:42.015Z,8.98
2022-10-12T23:24:44.490Z,10.23
2022-10-12T23:27:46.980Z,9.60
2022-10-12T23:30:49.613Z,10.73
2022-10-12T23:33:59.986Z,10.32
2022-10-12T23:37:02.420Z,11.25
2022-10-12T23:40:06.555Z,9.63
2022-10-12T23:43:09.041Z,9.70
2022-10-12T23:46:12.791Z,10.13
2022-10-12T23:49:15.308Z,9.98
2022-10-12T23:52:18.114Z,9.50
2022-10-12T23:55:20.696Z,8.97
2022-10-12T23:58:23.361Z,9.30
